sensor_id;sensor_type;location;lat;lon;timestamp;temperature;humidity
74155;DHT22;62509;46.248;6.018;2024-03-07T00:02:58;6.00;83.10
74155;DHT22;62509;46.248;6.018;2024-03-07T00:08:02;6.00;83.10
74155;DHT22;62509;46.248;6.018;2024-03-07T00:13:05;5.90;83.20
74155;DHT22;62509;46.248;6.018;2024-03-07T00:18:10;5.90;83.20
74155;DHT22;62509;46.248;6.018;2024-03-07T00:23:14;5.90;82.90
74155;DHT22;62509;46.248;6.018;2024-03-07T00:28:18;5.90;83.10
74155;DHT22;62509;46.248;6.018;2024-03-07T00:33:23;5.80;82.80
74155;DHT22;62509;46.248;6.018;2024-03-07T00:38:34;5.70;83.10
74155;DHT22;62509;46.248;6.018;2024-03-07T00:43:37;5.70;83.00
74155;DHT22;62509;46.248;6.018;2024-03-07T00:48:41;5.70;83.00
74155;DHT22;62509;46.248;6.018;2024-03-07T00:53:47;5.60;82.80
74155;DHT22;62509;46.248;6.018;2024-03-07T00:58:50;5.60;82.90
74155;DHT22;62509;46.248;6.018;2024-03-07T01:03:55;5.60;82.80
74155;DHT22;62509;46.248;6.018;2024-03-07T01:08:58;5.50;82.90
74155;DHT22;62509;46.248;6.018;2024-03-07T01:14:01;5.50;83.10
74155;DHT22;62509;46.248;6.018;2024-03-07T01:19:06;5.40;83.30
74155;DHT22;62509;46.248;6.018;2024-03-07T01:24:10;5.30;83.30
74155;DHT22;62509;46.248;6.018;2024-03-07T01:29:13;5.20;83.50
74155;DHT22;62509;46.248;6.018;2024-03-07T01:34:18;5.20;83.50
74155;DHT22;62509;46.248;6.018;2024-03-07T01:39:22;5.20;83.20
74155;DHT22;62509;46.248;6.018;2024-03-07T01:44:25;5.20;83.50
74155;DHT22;62509;46.248;6.018;2024-03-07T01:49:29;5.40;83.60
74155;DHT22;62509;46.248;6.018;2024-03-07T01:54:32;5.40;83.40
74155;DHT22;62509;46.248;6.018;2024-03-07T01:59:36;5.50;83.60
74155;DHT22;62509;46.248;6.018;2024-03-07T02:04:42;5.50;83.40
74155;DHT22;62509;46.248;6.018;2024-03-07T02:09:45;5.40;83.40
74155;DHT22;62509;46.248;6.018;2024-03-07T02:14:49;5.30;83.30
74155;DHT22;62509;46.248;6.018;2024-03-07T02:19:53;5.40;83.50
74155;DHT22;62509;46.248;6.018;2024-03-07T02:24:58;5.50;83.60
74155;DHT22;62509;46.248;6.018;2024-03-07T02:30:01;5.60;83.50
74155;DHT22;62509;46.248;6.018;2024-03-07T02:35:06;5.70;83.50
74155;DHT22;62509;46.248;6.018;2024-03-07T02:40:12;5.80;83.60
74155;DHT22;62509;46.248;6.018;2024-03-07T02:45:15;5.80;83.60
74155;DHT22;62509;46.248;6.018;2024-03-07T02:50:19;5.80;83.50
74155;DHT22;62509;46.248;6.018;2024-03-07T02:55:25;5.90;83.40
74155;DHT22;62509;46.248;6.018;2024-03-07T03:00:28;5.80;83.40
74155;DHT22;62509;46.248;6.018;2024-03-07T03:05:32;5.90;83.60
74155;DHT22;62509;46.248;6.018;2024-03-07T03:10:36;5.90;83.40
74155;DHT22;62509;46.248;6.018;2024-03-07T03:15:39;5.90;83.50
74155;DHT22;62509;46.248;6.018;2024-03-07T03:20:43;6.10;83.50
74155;DHT22;62509;46.248;6.018;2024-03-07T03:25:51;6.10;83.40
74155;DHT22;62509;46.248;6.018;2024-03-07T03:30:55;6.00;83.50
74155;DHT22;62509;46.248;6.018;2024-03-07T03:35:59;6.10;83.70
74155;DHT22;62509;46.248;6.018;2024-03-07T03:41:03;6.20;83.70
74155;DHT22;62509;46.248;6.018;2024-03-07T03:46:09;6.20;83.50
74155;DHT22;62509;46.248;6.018;2024-03-07T03:51:12;6.30;83.50
74155;DHT22;62509;46.248;6.018;2024-03-07T03:56:18;6.40;83.60
74155;DHT22;62509;46.248;6.018;2024-03-07T04:01:21;6.40;83.60
74155;DHT22;62509;46.248;6.018;2024-03-07T04:06:25;6.40;83.80
74155;DHT22;62509;46.248;6.018;2024-03-07T04:11:30;6.50;83.60
74155;DHT22;62509;46.248;6.018;2024-03-07T04:16:34;6.60;83.50
74155;DHT22;62509;46.248;6.018;2024-03-07T04:21:37;6.70;83.50
74155;DHT22;62509;46.248;6.018;2024-03-07T04:26:42;6.70;83.60
74155;DHT22;62509;46.248;6.018;2024-03-07T04:31:46;6.70;83.50
74155;DHT22;62509;46.248;6.018;2024-03-07T04:36:49;6.70;83.70
74155;DHT22;62509;46.248;6.018;2024-03-07T04:41:54;6.70;83.60
74155;DHT22;62509;46.248;6.018;2024-03-07T04:46:59;6.70;83.70
74155;DHT22;62509;46.248;6.018;2024-03-07T04:52:02;6.70;83.80
74155;DHT22;62509;46.248;6.018;2024-03-07T04:57:07;6.70;83.90
74155;DHT22;62509;46.248;6.018;2024-03-07T05:02:11;6.70;83.90
74155;DHT22;62509;46.248;6.018;2024-03-07T05:07:14;6.80;83.80
74155;DHT22;62509;46.248;6.018;2024-03-07T05:12:19;6.80;83.70
74155;DHT22;62509;46.248;6.018;2024-03-07T05:17:22;6.80;83.40
74155;DHT22;62509;46.248;6.018;2024-03-07T05:22:25;6.80;83.40
74155;DHT22;62509;46.248;6.018;2024-03-07T05:27:29;6.80;83.50
74155;DHT22;62509;46.248;6.018;2024-03-07T05:32:32;6.70;83.70
74155;DHT22;62509;46.248;6.018;2024-03-07T05:37:36;6.80;83.80
74155;DHT22;62509;46.248;6.018;2024-03-07T05:42:40;6.80;83.70
74155;DHT22;62509;46.248;6.018;2024-03-07T05:47:43;6.70;83.70
74155;DHT22;62509;46.248;6.018;2024-03-07T05:52:47;6.70;83.70
74155;DHT22;62509;46.248;6.018;2024-03-07T05:57:52;6.70;83.60
74155;DHT22;62509;46.248;6.018;2024-03-07T06:02:55;6.70;83.60
74155;DHT22;62509;46.248;6.018;2024-03-07T06:07:59;6.60;83.60
74155;DHT22;62509;46.248;6.018;2024-03-07T06:13:04;6.60;83.60
74155;DHT22;62509;46.248;6.018;2024-03-07T06:18:11;6.50;83.70
74155;DHT22;62509;46.248;6.018;2024-03-07T06:23:16;6.40;83.80
74155;DHT22;62509;46.248;6.018;2024-03-07T06:28:21;6.40;84.00
74155;DHT22;62509;46.248;6.018;2024-03-07T06:33:24;6.40;84.00
74155;DHT22;62509;46.248;6.018;2024-03-07T06:38:28;6.50;83.90
74155;DHT22;62509;46.248;6.018;2024-03-07T06:43:32;6.50;83.90
74155;DHT22;62509;46.248;6.018;2024-03-07T06:48:36;6.60;83.90
74155;DHT22;62509;46.248;6.018;2024-03-07T06:53:39;6.70;84.10
74155;DHT22;62509;46.248;6.018;2024-03-07T06:58:43;6.70;84.20
74155;DHT22;62509;46.248;6.018;2024-03-07T07:03:47;6.80;84.30
74155;DHT22;62509;46.248;6.018;2024-03-07T07:08:50;6.90;84.10
74155;DHT22;62509;46.248;6.018;2024-03-07T07:13:55;7.00;84.30
74155;DHT22;62509;46.248;6.018;2024-03-07T07:18:58;7.10;84.20
74155;DHT22;62509;46.248;6.018;2024-03-07T07:24:01;7.20;84.20
74155;DHT22;62509;46.248;6.018;2024-03-07T07:29:06;7.30;84.10
74155;DHT22;62509;46.248;6.018;2024-03-07T07:34:10;7.30;84.00
74155;DHT22;62509;46.248;6.018;2024-03-07T07:39:13;7.40;84.10
74155;DHT22;62509;46.248;6.018;2024-03-07T07:44:20;7.40;84.00
74155;DHT22;62509;46.248;6.018;2024-03-07T07:49:23;7.40;84.10
74155;DHT22;62509;46.248;6.018;2024-03-07T07:54:26;7.50;84.20
74155;DHT22;62509;46.248;6.018;2024-03-07T07:59:31;7.60;84.10
74155;DHT22;62509;46.248;6.018;2024-03-07T08:04:34;7.60;84.00
74155;DHT22;62509;46.248;6.018;2024-03-07T08:09:37;7.70;84.10
74155;DHT22;62509;46.248;6.018;2024-03-07T08:14:42;7.70;84.00
74155;DHT22;62509;46.248;6.018;2024-03-07T08:19:46;7.60;83.90
74155;DHT22;62509;46.248;6.018;2024-03-07T08:24:50;7.70;84.00
74155;DHT22;62509;46.248;6.018;2024-03-07T08:29:54;7.70;84.00
74155;DHT22;62509;46.248;6.018;2024-03-07T08:34:58;7.60;83.90
74155;DHT22;62509;46.248;6.018;2024-03-07T08:40:01;7.60;84.00
74155;DHT22;62509;46.248;6.018;2024-03-07T08:45:08;7.60;83.90
74155;DHT22;62509;46.248;6.018;2024-03-07T08:50:12;7.60;84.00
74155;DHT22;62509;46.248;6.018;2024-03-07T08:55:18;7.70;84.00
74155;DHT22;62509;46.248;6.018;2024-03-07T09:00:24;7.70;84.00
74155;DHT22;62509;46.248;6.018;2024-03-07T09:05:29;7.90;84.00
74155;DHT22;62509;46.248;6.018;2024-03-07T09:10:35;7.90;84.00
74155;DHT22;62509;46.248;6.018;2024-03-07T09:15:40;8.00;84.10
74155;DHT22;62509;46.248;6.018;2024-03-07T09:20:43;8.00;83.70
74155;DHT22;62509;46.248;6.018;2024-03-07T09:25:46;8.00;83.90
74155;DHT22;62509;46.248;6.018;2024-03-07T09:30:51;8.30;84.00
74155;DHT22;62509;46.248;6.018;2024-03-07T09:35:54;8.50;83.90
74155;DHT22;62509;46.248;6.018;2024-03-07T09:40:57;8.50;83.60
74155;DHT22;62509;46.248;6.018;2024-03-07T09:46:02;8.60;83.60
74155;DHT22;62509;46.248;6.018;2024-03-07T09:51:06;8.60;83.50
74155;DHT22;62509;46.248;6.018;2024-03-07T09:56:11;8.60;83.60
74155;DHT22;62509;46.248;6.018;2024-03-07T10:01:16;8.70;83.60
74155;DHT22;62509;46.248;6.018;2024-03-07T10:06:22;8.80;83.80
74155;DHT22;62509;46.248;6.018;2024-03-07T10:11:25;8.90;83.70
74155;DHT22;62509;46.248;6.018;2024-03-07T10:16:30;9.00;83.50
74155;DHT22;62509;46.248;6.018;2024-03-07T10:21:34;9.00;83.40
74155;DHT22;62509;46.248;6.018;2024-03-07T10:26:38;9.10;83.70
74155;DHT22;62509;46.248;6.018;2024-03-07T10:31:43;9.30;83.60
74155;DHT22;62509;46.248;6.018;2024-03-07T10:37:02;9.40;83.30
74155;DHT22;62509;46.248;6.018;2024-03-07T10:42:06;9.50;83.30
74155;DHT22;62509;46.248;6.018;2024-03-07T10:47:11;9.60;83.40
74155;DHT22;62509;46.248;6.018;2024-03-07T10:52:20;9.70;83.20
74155;DHT22;62509;46.248;6.018;2024-03-07T10:57:35;9.70;83.10
74155;DHT22;62509;46.248;6.018;2024-03-07T11:02:46;9.70;83.00
74155;DHT22;62509;46.248;6.018;2024-03-07T11:07:50;9.80;83.10
74155;DHT22;62509;46.248;6.018;2024-03-07T11:12:54;9.90;83.20
74155;DHT22;62509;46.248;6.018;2024-03-07T11:18:00;9.90;83.00
74155;DHT22;62509;46.248;6.018;2024-03-07T11:28:30;10.10;83.20
74155;DHT22;62509;46.248;6.018;2024-03-07T11:33:35;10.20;83.20
74155;DHT22;62509;46.248;6.018;2024-03-07T11:38:44;10.30;82.90
74155;DHT22;62509;46.248;6.018;2024-03-07T11:43:49;10.30;82.90
74155;DHT22;62509;46.248;6.018;2024-03-07T11:48:58;10.30;83.00
74155;DHT22;62509;46.248;6.018;2024-03-07T11:54:04;10.40;82.80
74155;DHT22;62509;46.248;6.018;2024-03-07T11:59:07;10.40;82.80
74155;DHT22;62509;46.248;6.018;2024-03-07T12:04:16;10.40;82.80
74155;DHT22;62509;46.248;6.018;2024-03-07T12:09:19;10.50;82.80
74155;DHT22;62509;46.248;6.018;2024-03-07T12:14:25;10.60;82.80
74155;DHT22;62509;46.248;6.018;2024-03-07T12:19:30;10.60;82.70
74155;DHT22;62509;46.248;6.018;2024-03-07T12:24:34;10.60;82.60
74155;DHT22;62509;46.248;6.018;2024-03-07T12:29:38;10.60;82.70
74155;DHT22;62509;46.248;6.018;2024-03-07T12:34:45;10.60;82.70
74155;DHT22;62509;46.248;6.018;2024-03-07T12:39:48;10.70;82.70
74155;DHT22;62509;46.248;6.018;2024-03-07T12:45:02;10.80;82.60
74155;DHT22;62509;46.248;6.018;2024-03-07T12:50:10;10.80;82.50
74155;DHT22;62509;46.248;6.018;2024-03-07T12:55:13;10.90;82.70
74155;DHT22;62509;46.248;6.018;2024-03-07T13:00:19;11.00;82.50
74155;DHT22;62509;46.248;6.018;2024-03-07T13:05:24;11.00;82.30
74155;DHT22;62509;46.248;6.018;2024-03-07T13:10:28;11.00;82.50
74155;DHT22;62509;46.248;6.018;2024-03-07T13:15:31;11.10;82.40
74155;DHT22;62509;46.248;6.018;2024-03-07T13:20:35;11.10;82.20
74155;DHT22;62509;46.248;6.018;2024-03-07T13:25:39;11.00;82.40
74155;DHT22;62509;46.248;6.018;2024-03-07T13:30:43;11.20;82.40
74155;DHT22;62509;46.248;6.018;2024-03-07T13:35:52;11.20;82.20
74155;DHT22;62509;46.248;6.018;2024-03-07T13:40:56;11.30;82.20
74155;DHT22;62509;46.248;6.018;2024-03-07T13:45:59;11.30;82.00
74155;DHT22;62509;46.248;6.018;2024-03-07T13:51:04;11.40;82.00
74155;DHT22;62509;46.248;6.018;2024-03-07T14:01:51;11.40;82.00
74155;DHT22;62509;46.248;6.018;2024-03-07T14:12:32;11.40;82.00
74155;DHT22;62509;46.248;6.018;2024-03-07T14:17:48;11.40;81.80
74155;DHT22;62509;46.248;6.018;2024-03-07T14:23:10;11.40;81.70
74155;DHT22;62509;46.248;6.018;2024-03-07T14:28:29;11.40;81.80
74155;DHT22;62509;46.248;6.018;2024-03-07T14:33:48;11.50;81.70
74155;DHT22;62509;46.248;6.018;2024-03-07T14:38:55;11.50;81.70
74155;DHT22;62509;46.248;6.018;2024-03-07T14:43:59;11.50;81.60
74155;DHT22;62509;46.248;6.018;2024-03-07T14:49:03;11.50;81.60
74155;DHT22;62509;46.248;6.018;2024-03-07T14:54:08;11.50;81.60
74155;DHT22;62509;46.248;6.018;2024-03-07T14:59:12;11.60;81.60
74155;DHT22;62509;46.248;6.018;2024-03-07T15:04:15;11.60;81.60
74155;DHT22;62509;46.248;6.018;2024-03-07T15:09:20;11.70;81.60
74155;DHT22;62509;46.248;6.018;2024-03-07T15:14:24;11.70;81.30
74155;DHT22;62509;46.248;6.018;2024-03-07T15:19:39;11.70;81.10
74155;DHT22;62509;46.248;6.018;2024-03-07T15:24:43;11.70;81.20
74155;DHT22;62509;46.248;6.018;2024-03-07T15:29:46;11.70;81.20
74155;DHT22;62509;46.248;6.018;2024-03-07T15:34:49;11.70;81.10
74155;DHT22;62509;46.248;6.018;2024-03-07T15:39:54;11.70;81.10
74155;DHT22;62509;46.248;6.018;2024-03-07T15:44:57;11.70;81.00
74155;DHT22;62509;46.248;6.018;2024-03-07T15:50:01;11.70;80.90
74155;DHT22;62509;46.248;6.018;2024-03-07T15:55:06;11.70;81.00
74155;DHT22;62509;46.248;6.018;2024-03-07T16:00:15;11.70;81.00
74155;DHT22;62509;46.248;6.018;2024-03-07T16:05:28;11.70;81.00
74155;DHT22;62509;46.248;6.018;2024-03-07T16:10:34;11.60;80.90
74155;DHT22;62509;46.248;6.018;2024-03-07T16:15:38;11.60;80.90
74155;DHT22;62509;46.248;6.018;2024-03-07T16:20:43;11.50;81.40
74155;DHT22;62509;46.248;6.018;2024-03-07T16:25:50;11.40;80.80
74155;DHT22;62509;46.248;6.018;2024-03-07T16:30:54;11.40;80.80
74155;DHT22;62509;46.248;6.018;2024-03-07T16:35:59;11.20;80.80
74155;DHT22;62509;46.248;6.018;2024-03-07T16:41:04;11.20;81.00
74155;DHT22;62509;46.248;6.018;2024-03-07T16:46:08;11.10;80.80
74155;DHT22;62509;46.248;6.018;2024-03-07T16:51:11;11.00;80.80
74155;DHT22;62509;46.248;6.018;2024-03-07T16:56:16;10.90;80.90
74155;DHT22;62509;46.248;6.018;2024-03-07T17:01:20;10.80;80.90
74155;DHT22;62509;46.248;6.018;2024-03-07T17:06:25;10.70;81.00
74155;DHT22;62509;46.248;6.018;2024-03-07T17:11:30;10.60;81.00
74155;DHT22;62509;46.248;6.018;2024-03-07T17:16:33;10.60;81.00
74155;DHT22;62509;46.248;6.018;2024-03-07T17:21:36;10.50;81.00
74155;DHT22;62509;46.248;6.018;2024-03-07T17:26:41;10.40;81.00
74155;DHT22;62509;46.248;6.018;2024-03-07T17:31:44;10.40;81.10
74155;DHT22;62509;46.248;6.018;2024-03-07T17:36:48;10.30;81.10
74155;DHT22;62509;46.248;6.018;2024-03-07T17:41:52;10.30;81.20
74155;DHT22;62509;46.248;6.018;2024-03-07T17:46:56;10.30;81.20
74155;DHT22;62509;46.248;6.018;2024-03-07T17:51:59;10.30;81.20
74155;DHT22;62509;46.248;6.018;2024-03-07T17:57:04;10.20;81.10
74155;DHT22;62509;46.248;6.018;2024-03-07T18:02:07;10.20;81.20
74155;DHT22;62509;46.248;6.018;2024-03-07T18:07:13;10.20;81.10
74155;DHT22;62509;46.248;6.018;2024-03-07T18:12:20;10.20;81.10
74155;DHT22;62509;46.248;6.018;2024-03-07T18:17:24;10.10;80.90
74155;DHT22;62509;46.248;6.018;2024-03-07T18:22:27;10.00;81.10
74155;DHT22;62509;46.248;6.018;2024-03-07T18:27:35;9.90;81.00
74155;DHT22;62509;46.248;6.018;2024-03-07T18:32:38;9.90;80.80
74155;DHT22;62509;46.248;6.018;2024-03-07T18:37:42;9.80;80.70
74155;DHT22;62509;46.248;6.018;2024-03-07T18:42:47;9.70;80.60
74155;DHT22;62509;46.248;6.018;2024-03-07T18:47:52;9.60;80.70
74155;DHT22;62509;46.248;6.018;2024-03-07T18:52:58;9.40;80.80
74155;DHT22;62509;46.248;6.018;2024-03-07T18:58:02;9.30;81.10
74155;DHT22;62509;46.248;6.018;2024-03-07T19:03:08;9.20;81.10
74155;DHT22;62509;46.248;6.018;2024-03-07T19:08:12;9.20;80.90
74155;DHT22;62509;46.248;6.018;2024-03-07T19:13:26;9.10;80.80
74155;DHT22;62509;46.248;6.018;2024-03-07T19:18:34;9.10;81.00
74155;DHT22;62509;46.248;6.018;2024-03-07T19:23:37;9.00;80.90
74155;DHT22;62509;46.248;6.018;2024-03-07T19:28:49;8.90;81.10
74155;DHT22;62509;46.248;6.018;2024-03-07T19:33:52;8.70;81.00
74155;DHT22;62509;46.248;6.018;2024-03-07T19:38:55;8.60;81.10
74155;DHT22;62509;46.248;6.018;2024-03-07T19:44:00;8.50;81.10
74155;DHT22;62509;46.248;6.018;2024-03-07T19:49:03;8.50;81.20
74155;DHT22;62509;46.248;6.018;2024-03-07T19:54:07;8.60;81.30
74155;DHT22;62509;46.248;6.018;2024-03-07T19:59:13;8.50;81.10
74155;DHT22;62509;46.248;6.018;2024-03-07T20:04:16;8.50;81.10
74155;DHT22;62509;46.248;6.018;2024-03-07T20:09:19;8.50;81.10
74155;DHT22;62509;46.248;6.018;2024-03-07T20:14:24;8.50;81.10
74155;DHT22;62509;46.248;6.018;2024-03-07T20:19:27;8.50;81.00
74155;DHT22;62509;46.248;6.018;2024-03-07T20:24:31;8.50;80.90
74155;DHT22;62509;46.248;6.018;2024-03-07T20:29:35;8.40;80.90
74155;DHT22;62509;46.248;6.018;2024-03-07T20:34:40;8.40;81.00
74155;DHT22;62509;46.248;6.018;2024-03-07T20:39:43;8.30;81.00
74155;DHT22;62509;46.248;6.018;2024-03-07T20:45:07;8.20;81.10
74155;DHT22;62509;46.248;6.018;2024-03-07T20:50:12;8.10;81.00
74155;DHT22;62509;46.248;6.018;2024-03-07T20:55:17;8.10;80.70
74155;DHT22;62509;46.248;6.018;2024-03-07T21:00:23;8.00;80.70
74155;DHT22;62509;46.248;6.018;2024-03-07T21:05:27;7.90;80.60
74155;DHT22;62509;46.248;6.018;2024-03-07T21:10:30;7.90;80.60
74155;DHT22;62509;46.248;6.018;2024-03-07T21:15:35;7.80;80.60
74155;DHT22;62509;46.248;6.018;2024-03-07T21:20:38;7.70;80.90
74155;DHT22;62509;46.248;6.018;2024-03-07T21:25:44;7.70;80.90
74155;DHT22;62509;46.248;6.018;2024-03-07T21:30:48;7.60;81.00
74155;DHT22;62509;46.248;6.018;2024-03-07T21:35:54;7.60;80.90
74155;DHT22;62509;46.248;6.018;2024-03-07T21:40:57;7.50;81.00
74155;DHT22;62509;46.248;6.018;2024-03-07T21:46:02;7.50;81.00
74155;DHT22;62509;46.248;6.018;2024-03-07T21:51:08;7.30;80.90
74155;DHT22;62509;46.248;6.018;2024-03-07T21:56:12;7.20;81.00
74155;DHT22;62509;46.248;6.018;2024-03-07T22:01:16;7.00;81.20
74155;DHT22;62509;46.248;6.018;2024-03-07T22:06:20;7.00;81.20
74155;DHT22;62509;46.248;6.018;2024-03-07T22:11:23;6.80;81.40
74155;DHT22;62509;46.248;6.018;2024-03-07T22:16:29;6.80;81.40
74155;DHT22;62509;46.248;6.018;2024-03-07T22:21:33;6.80;81.10
74155;DHT22;62509;46.248;6.018;2024-03-07T22:26:36;6.80;80.80
74155;DHT22;62509;46.248;6.018;2024-03-07T22:31:41;6.80;80.70
74155;DHT22;62509;46.248;6.018;2024-03-07T22:36:44;6.60;80.90
74155;DHT22;62509;46.248;6.018;2024-03-07T22:41:50;6.50;81.50
74155;DHT22;62509;46.248;6.018;2024-03-07T22:46:55;6.40;81.40
74155;DHT22;62509;46.248;6.018;2024-03-07T22:51:58;6.20;81.20
74155;DHT22;62509;46.248;6.018;2024-03-07T22:57:01;6.20;81.30
74155;DHT22;62509;46.248;6.018;2024-03-07T23:02:06;6.20;81.30
74155;DHT22;62509;46.248;6.018;2024-03-07T23:07:09;6.20;81.20
74155;DHT22;62509;46.248;6.018;2024-03-07T23:12:14;6.10;81.00
74155;DHT22;62509;46.248;6.018;2024-03-07T23:17:20;5.90;81.10
74155;DHT22;62509;46.248;6.018;2024-03-07T23:22:26;5.80;81.10
74155;DHT22;62509;46.248;6.018;2024-03-07T23:27:30;5.70;80.90
74155;DHT22;62509;46.248;6.018;2024-03-07T23:32:36;5.60;81.20
74155;DHT22;62509;46.248;6.018;2024-03-07T23:37:39;5.60;81.40
74155;DHT22;62509;46.248;6.018;2024-03-07T23:42:43;5.60;81.30
74155;DHT22;62509;46.248;6.018;2024-03-07T23:47:49;5.60;81.30
74155;DHT22;62509;46.248;6.018;2024-03-07T23:52:53;5.50;81.40
74155;DHT22;62509;46.248;6.018;2024-03-07T23:57:56;5.50;81.00
